createdAt,value
2017-12-03T00:00:09.891Z,-0.80
2017-12-03T00:02:37.339Z,-0.80
2017-12-03T00:05:04.796Z,-0.80
2017-12-03T00:07:35.667Z,-0.80
2017-12-03T00:10:03.157Z,-0.80
2017-12-03T00:12:30.708Z,-0.80
2017-12-03T00:14:58.160Z,-0.80
2017-12-03T00:17:26.203Z,-0.70
2017-12-03T00:19:53.673Z,-0.70
2017-12-03T00:22:21.919Z,-0.70
2017-12-03T00:24:49.485Z,-0.80
2017-12-03T00:27:20.728Z,-0.80
2017-12-03T00:29:48.404Z,-0.70
2017-12-03T00:32:15.847Z,-0.70
2017-12-03T00:34:43.509Z,-0.70
2017-12-03T00:37:11.152Z,-0.60
2017-12-03T00:39:46.853Z,-0.60
2017-12-03T00:42:15.050Z,-0.60
2017-12-03T00:44:42.529Z,-0.60
2017-12-03T00:47:11.235Z,-0.60
2017-12-03T00:49:38.705Z,-0.60
2017-12-03T00:52:06.169Z,-0.60
2017-12-03T00:54:33.628Z,-0.60
2017-12-03T00:57:04.441Z,-0.60
2017-12-03T00:59:31.912Z,-0.70
2017-12-03T01:02:00.303Z,-0.80
2017-12-03T01:04:27.773Z,-0.80
2017-12-03T01:06:55.224Z,-0.70
2017-12-03T01:09:26.638Z,-0.70
2017-12-03T01:11:54.092Z,-0.70
2017-12-03T01:14:21.555Z,-0.70
2017-12-03T01:16:50.537Z,-0.60
2017-12-03T01:19:17.981Z,-0.60
2017-12-03T01:21:45.452Z,-0.70
2017-12-03T01:24:20.212Z,-0.80
2017-12-03T01:26:47.696Z,-0.80
2017-12-03T01:29:15.144Z,-0.90
2017-12-03T01:31:42.633Z,-0.70
2017-12-03T01:34:10.428Z,-0.80
2017-12-03T01:36:40.332Z,-0.70
2017-12-03T01:39:11.780Z,-0.70
2017-12-03T01:41:40.165Z,-0.60
2017-12-03T01:44:07.637Z,-0.50
2017-12-03T01:46:35.294Z,-0.60
2017-12-03T01:49:02.837Z,-0.60
2017-12-03T01:51:31.072Z,-0.80
2017-12-03T01:53:59.892Z,-0.70
2017-12-03T01:56:27.358Z,-0.70
2017-12-03T01:58:54.827Z,-0.70
2017-12-03T02:01:22.285Z,-0.60
2017-12-03T02:03:49.965Z,-0.70
2017-12-03T02:06:18.340Z,-0.60
2017-12-03T02:08:45.789Z,-0.70
2017-12-03T02:11:13.248Z,-0.60
2017-12-03T02:13:40.773Z,-0.60
2017-12-03T02:16:08.252Z,-0.70
2017-12-03T02:18:35.696Z,-0.70
2017-12-03T02:21:03.173Z,-0.80
2017-12-03T02:23:30.637Z,-0.70
2017-12-03T02:25:58.385Z,-0.70
2017-12-03T02:28:26.614Z,-0.70
2017-12-03T02:30:54.262Z,-0.60
2017-12-03T02:33:21.854Z,-0.70
2017-12-03T02:35:49.458Z,-0.80
2017-12-03T02:38:16.907Z,-0.70
2017-12-03T02:40:51.195Z,-0.70
2017-12-03T02:43:18.663Z,-0.60
2017-12-03T02:45:46.391Z,-0.60
2017-12-03T02:48:14.185Z,-0.70
2017-12-03T02:50:41.628Z,-0.80
2017-12-03T02:53:09.108Z,-0.80
2017-12-03T02:55:40.744Z,-0.80
2017-12-03T02:58:08.240Z,-0.90
2017-12-03T03:00:35.809Z,-0.90
2017-12-03T03:03:03.279Z,-0.80
2017-12-03T03:05:31.542Z,-0.70
2017-12-03T03:07:59.292Z,-0.70
2017-12-03T03:10:26.748Z,-0.70
2017-12-03T03:12:58.228Z,-0.70
2017-12-03T03:15:25.672Z,-0.70
2017-12-03T03:17:53.455Z,-0.60
2017-12-03T03:20:21.240Z,-0.60
2017-12-03T03:22:48.845Z,-0.60
2017-12-03T03:25:16.328Z,-0.50
2017-12-03T03:27:45.267Z,-0.60
2017-12-03T03:30:12.779Z,-0.60
2017-12-03T03:32:40.236Z,-0.60
2017-12-03T03:35:07.785Z,-0.60
2017-12-03T03:37:35.234Z,-0.70
2017-12-03T03:40:02.713Z,-0.70
2017-12-03T03:42:30.380Z,-0.80
2017-12-03T03:44:58.201Z,-0.90
2017-12-03T03:47:25.657Z,-0.80
2017-12-03T03:49:53.132Z,-0.80
2017-12-03T03:52:20.724Z,-0.90
2017-12-03T03:54:48.163Z,-0.90
2017-12-03T03:57:21.012Z,-0.90
2017-12-03T03:59:49.248Z,-0.90
2017-12-03T04:02:17.764Z,-0.90
2017-12-03T04:04:45.221Z,-0.90
2017-12-03T04:07:12.708Z,-0.90
2017-12-03T04:09:40.176Z,-0.90
2017-12-03T04:12:07.907Z,-1.00
2017-12-03T04:14:35.580Z,-0.90
2017-12-03T04:17:03.879Z,-1.00
2017-12-03T04:19:32.113Z,-1.10
2017-12-03T04:21:59.643Z,-1.10
2017-12-03T04:24:27.109Z,-1.10
2017-12-03T04:26:54.548Z,-1.00
2017-12-03T04:29:25.339Z,-1.10
2017-12-03T04:31:52.800Z,-1.00
2017-12-03T04:34:20.418Z,-1.00
2017-12-03T04:36:47.872Z,-1.00
2017-12-03T04:39:15.352Z,-0.90
2017-12-03T04:41:42.826Z,-0.90
2017-12-03T04:44:10.289Z,-0.90
2017-12-03T04:46:37.765Z,-1.00
2017-12-03T04:49:05.284Z,-1.10
2017-12-03T04:51:32.724Z,-1.10
2017-12-03T04:54:01.507Z,-1.10
2017-12-03T04:56:28.954Z,-1.00
2017-12-03T04:58:56.392Z,-1.00
2017-12-03T05:01:23.868Z,-1.00
2017-12-03T05:03:51.348Z,-1.00
2017-12-03T05:06:18.885Z,-1.00
2017-12-03T05:08:46.321Z,-1.00
2017-12-03T05:11:13.776Z,-1.00
2017-12-03T05:13:42.913Z,-1.10
2017-12-03T05:16:10.372Z,-1.10
2017-12-03T05:18:37.841Z,-1.10
2017-12-03T05:21:05.309Z,-1.20
2017-12-03T05:23:32.753Z,-1.20
2017-12-03T05:26:00.224Z,-1.10
2017-12-03T05:28:31.412Z,-1.10
2017-12-03T05:30:58.896Z,-1.00
2017-12-03T05:33:26.351Z,-1.00
2017-12-03T05:35:53.824Z,-1.00
2017-12-03T05:38:21.313Z,-1.10
2017-12-03T05:43:35.767Z,-1.00
2017-12-03T05:46:03.917Z,-1.00
2017-12-03T05:48:31.394Z,-1.00
2017-12-03T05:50:58.849Z,-1.00
2017-12-03T05:53:26.326Z,-0.90
2017-12-03T05:55:53.782Z,-0.90
2017-12-03T05:58:21.229Z,-1.00
2017-12-03T06:00:48.728Z,-0.90
2017-12-03T06:03:17.860Z,-1.10
2017-12-03T06:05:45.333Z,-1.10
2017-12-03T06:08:12.773Z,-1.10
2017-12-03T06:10:40.288Z,-1.10
2017-12-03T06:13:07.728Z,-1.00
2017-12-03T06:15:35.224Z,-1.00
2017-12-03T06:18:02.664Z,-1.00
2017-12-03T06:20:30.113Z,-0.80
2017-12-03T06:22:57.772Z,-0.90
2017-12-03T06:25:25.653Z,-0.90
2017-12-03T06:27:53.104Z,-0.90
2017-12-03T06:30:20.545Z,-0.80
2017-12-03T06:32:48.003Z,-0.80
2017-12-03T06:35:15.473Z,-0.70
2017-12-03T06:37:43.216Z,-0.70
2017-12-03T06:40:11.185Z,-0.70
2017-12-03T06:42:38.874Z,-0.80
2017-12-03T06:45:07.111Z,-0.90
2017-12-03T06:47:34.564Z,-0.90
2017-12-03T06:50:02.048Z,-0.90
2017-12-03T06:52:29.499Z,-0.90
2017-12-03T06:54:58.183Z,-0.90
2017-12-03T06:57:25.664Z,-1.00
2017-12-03T06:59:53.105Z,-0.90
2017-12-03T07:02:20.548Z,-0.90
2017-12-03T07:04:48.031Z,-1.00
2017-12-03T07:07:15.476Z,-1.00
2017-12-03T07:09:42.908Z,-1.00
2017-12-03T07:12:10.381Z,-0.90
2017-12-03T07:14:46.236Z,-1.10
2017-12-03T07:17:13.692Z,-1.10
2017-12-03T07:19:41.162Z,-1.10
2017-12-03T07:22:09.403Z,-1.10
2017-12-03T07:24:36.972Z,-1.20
2017-12-03T07:27:04.412Z,-1.00
2017-12-03T07:29:31.867Z,-1.00
2017-12-03T07:31:59.349Z,-0.90
2017-12-03T07:34:27.706Z,-0.80
2017-12-03T07:36:55.180Z,-0.70
2017-12-03T07:39:22.647Z,-0.60
2017-12-03T07:41:51.823Z,-0.70
2017-12-03T07:44:19.284Z,-0.70
2017-12-03T07:46:46.774Z,-0.70
2017-12-03T07:49:14.225Z,-0.50
2017-12-03T07:51:41.680Z,-0.30
2017-12-03T07:54:10.294Z,-0.20
2017-12-03T07:56:37.731Z,-0.20
2017-12-03T07:59:05.205Z,-0.20
2017-12-03T08:01:32.697Z,-0.30
2017-12-03T08:04:00.334Z,-0.40
2017-12-03T08:06:27.791Z,-0.30
2017-12-03T08:08:55.272Z,-0.20
2017-12-03T08:11:22.751Z,-0.10
2017-12-03T08:13:50.208Z,-0.10
2017-12-03T08:16:25.708Z,-0.10
2017-12-03T08:18:53.213Z,-0.10
2017-12-03T08:21:20.696Z,-0.10
2017-12-03T08:23:49.067Z,-0.20
2017-12-03T08:26:16.740Z,-0.10
2017-12-03T08:28:44.184Z,-0.10
2017-12-03T08:31:15.418Z,0.00
2017-12-03T08:33:43.988Z,0.00
2017-12-03T08:36:11.445Z,-0.10
2017-12-03T08:38:38.978Z,-0.20
2017-12-03T08:41:06.461Z,-0.40
2017-12-03T08:43:35.514Z,-0.30
2017-12-03T08:46:07.204Z,-0.30
2017-12-03T08:48:34.668Z,-0.30
2017-12-03T08:51:02.148Z,-0.20
2017-12-03T08:53:29.699Z,-0.20
2017-12-03T08:55:57.152Z,-0.20
2017-12-03T08:58:24.596Z,-0.20
2017-12-03T09:00:52.046Z,-0.20
2017-12-03T09:03:23.402Z,0.00
2017-12-03T09:05:50.876Z,0.20
2017-12-03T09:08:18.434Z,0.30
2017-12-03T09:10:46.400Z,0.30
2017-12-03T09:13:13.864Z,0.30
2017-12-03T09:15:41.316Z,0.00
2017-12-03T09:18:08.783Z,0.00
2017-12-03T09:20:37.097Z,0.10
2017-12-03T09:23:04.564Z,0.40
2017-12-03T09:25:32.044Z,0.70
2017-12-03T09:27:59.508Z,1.00
2017-12-03T09:30:26.952Z,1.20
2017-12-03T09:32:57.798Z,1.30
2017-12-03T09:35:25.258Z,1.50
2017-12-03T09:37:52.741Z,1.70
2017-12-03T09:40:21.986Z,1.90
2017-12-03T09:42:49.435Z,1.80
2017-12-03T09:45:16.969Z,2.10
2017-12-03T09:47:49.309Z,2.10
2017-12-03T09:50:16.761Z,2.00
2017-12-03T09:52:44.218Z,2.10
2017-12-03T09:55:13.519Z,2.10
2017-12-03T09:57:40.977Z,2.10
2017-12-03T10:00:08.459Z,2.20
2017-12-03T10:02:35.904Z,2.30
2017-12-03T10:05:03.352Z,2.30
2017-12-03T10:07:31.028Z,2.20
2017-12-03T10:09:58.728Z,2.30
2017-12-03T10:12:26.275Z,2.30
2017-12-03T10:14:54.920Z,2.30
2017-12-03T10:17:22.416Z,2.30
2017-12-03T10:19:49.891Z,2.30
2017-12-03T10:22:17.348Z,2.40
2017-12-03T10:24:45.448Z,2.40
2017-12-03T10:27:13.624Z,2.40
2017-12-03T10:29:41.068Z,2.50
2017-12-03T10:32:08.564Z,2.40
2017-12-03T10:34:35.995Z,2.40
2017-12-03T10:37:03.454Z,2.30
2017-12-03T10:39:30.914Z,2.30
2017-12-03T10:41:58.356Z,2.30
2017-12-03T10:44:26.540Z,2.40
2017-12-03T10:46:53.983Z,2.30
2017-12-03T10:49:21.552Z,2.30
2017-12-03T10:51:49.000Z,2.30
2017-12-03T10:54:16.474Z,2.30
2017-12-03T10:56:44.020Z,2.20
2017-12-03T10:59:11.519Z,2.10
2017-12-03T11:01:40.407Z,2.00
2017-12-03T11:04:08.794Z,2.00
2017-12-03T11:06:36.374Z,2.00
2017-12-03T11:09:03.818Z,1.80
2017-12-03T11:11:31.316Z,1.70
2017-12-03T11:13:59.740Z,1.70
2017-12-03T11:16:27.628Z,1.60
2017-12-03T11:18:59.011Z,1.60
2017-12-03T11:21:26.484Z,1.60
2017-12-03T11:23:55.190Z,1.50
2017-12-03T11:26:22.728Z,1.40
2017-12-03T11:28:50.418Z,1.40
2017-12-03T11:31:18.008Z,1.40
2017-12-03T11:33:45.443Z,1.40
2017-12-03T11:36:14.604Z,1.10
2017-12-03T11:38:42.068Z,1.10
2017-12-03T11:41:09.610Z,1.20
2017-12-03T11:43:37.138Z,1.30
2017-12-03T11:46:04.598Z,1.30
2017-12-03T11:48:32.066Z,1.30
2017-12-03T11:50:59.671Z,1.40
2017-12-03T11:53:28.061Z,1.50
2017-12-03T11:55:55.505Z,1.30
2017-12-03T11:58:23.133Z,1.10
2017-12-03T12:00:50.627Z,1.00
2017-12-03T12:03:18.368Z,0.90
2017-12-03T12:05:45.820Z,0.70
2017-12-03T12:08:13.309Z,0.70
2017-12-03T12:10:40.768Z,0.60
2017-12-03T12:13:08.290Z,0.50
2017-12-03T12:15:36.457Z,0.50
2017-12-03T12:18:03.931Z,0.40
2017-12-03T12:20:31.464Z,0.40
2017-12-03T12:22:58.914Z,0.40
2017-12-03T12:25:26.381Z,0.30
2017-12-03T12:27:54.130Z,0.20
2017-12-03T12:30:21.721Z,0.20
2017-12-03T12:32:50.105Z,0.20
2017-12-03T12:35:17.740Z,0.30
2017-12-03T12:37:45.212Z,0.30
2017-12-03T12:40:12.677Z,0.30
2017-12-03T12:42:40.147Z,0.30
2017-12-03T12:45:07.651Z,0.40
2017-12-03T12:47:35.913Z,0.30
2017-12-03T12:50:07.833Z,0.20
2017-12-03T12:52:35.282Z,0.20
2017-12-03T12:55:02.748Z,0.20
2017-12-03T12:57:30.204Z,0.00
2017-12-03T12:59:58.577Z,0.00
2017-12-03T13:02:26.040Z,0.10
2017-12-03T13:04:55.038Z,0.20
2017-12-03T13:07:22.606Z,0.20
2017-12-03T13:09:50.419Z,0.30
2017-12-03T13:12:18.946Z,0.30
2017-12-03T13:14:46.405Z,0.30
2017-12-03T13:17:14.236Z,0.20
2017-12-03T13:19:42.703Z,0.20
2017-12-03T13:22:10.164Z,0.20
2017-12-03T13:24:37.657Z,0.20
2017-12-03T13:27:05.112Z,0.10
2017-12-03T13:29:32.621Z,0.20
2017-12-03T13:32:00.148Z,0.20
2017-12-03T13:34:27.885Z,0.20
2017-12-03T13:36:58.958Z,0.20
2017-12-03T13:39:26.509Z,0.10
2017-12-03T13:41:53.962Z,0.10
2017-12-03T13:44:21.425Z,0.10
2017-12-03T13:46:48.908Z,0.00
2017-12-03T13:49:16.461Z,-0.10
2017-12-03T13:51:44.871Z,-0.10
2017-12-03T13:54:12.314Z,-0.10
2017-12-03T13:56:40.628Z,-0.10
2017-12-03T13:59:08.098Z,-0.10
2017-12-03T14:01:35.588Z,-0.10
2017-12-03T14:04:03.844Z,-0.20
2017-12-03T14:06:31.428Z,-0.20
2017-12-03T14:08:59.601Z,-0.20
2017-12-03T14:11:27.088Z,-0.20
2017-12-03T14:13:54.540Z,-0.20
2017-12-03T14:16:21.990Z,-0.20
2017-12-03T14:18:49.524Z,-0.20
2017-12-03T14:21:17.035Z,-0.20
2017-12-03T14:23:44.473Z,-0.20
2017-12-03T14:26:11.958Z,-0.20
2017-12-03T14:28:39.473Z,-0.20
2017-12-03T14:31:07.864Z,-0.20
2017-12-03T14:33:35.349Z,-0.20
2017-12-03T14:36:02.784Z,-0.20
2017-12-03T14:38:30.236Z,-0.30
2017-12-03T14:40:57.728Z,-0.30
2017-12-03T14:43:25.190Z,-0.30
2017-12-03T14:45:52.645Z,-0.40
2017-12-03T14:48:20.484Z,-0.40
2017-12-03T14:50:47.932Z,-0.40
2017-12-03T14:53:16.204Z,-0.30
2017-12-03T14:55:43.729Z,-0.40
2017-12-03T14:58:11.176Z,-0.30
2017-12-03T15:00:38.882Z,-0.30
2017-12-03T15:03:06.386Z,-0.30
2017-12-03T15:05:33.870Z,-0.20
2017-12-03T15:08:01.318Z,-0.20
2017-12-03T15:10:29.636Z,-0.20
2017-12-03T15:12:57.120Z,-0.20
2017-12-03T15:15:24.576Z,-0.10
2017-12-03T15:17:52.066Z,-0.10
2017-12-03T15:20:19.559Z,-0.10
2017-12-03T15:22:50.432Z,-0.10
2017-12-03T15:25:17.884Z,-0.10
2017-12-03T15:27:45.419Z,-0.10
2017-12-03T15:30:13.457Z,0.00
2017-12-03T15:32:41.191Z,0.00
2017-12-03T15:35:08.664Z,0.00
2017-12-03T15:37:36.459Z,0.00
2017-12-03T15:40:07.567Z,0.00
2017-12-03T15:42:35.008Z,-0.10
2017-12-03T15:45:02.785Z,-0.20
2017-12-03T15:47:30.326Z,-0.20
2017-12-03T15:49:57.766Z,-0.20
2017-12-03T15:52:25.215Z,-0.20
2017-12-03T15:54:56.093Z,-0.20
2017-12-03T15:57:23.578Z,-0.20
2017-12-03T15:59:51.055Z,-0.20
2017-12-03T16:02:18.537Z,-0.30
2017-12-03T16:04:46.945Z,-0.20
2017-12-03T16:07:14.395Z,-0.20
2017-12-03T16:09:45.628Z,-0.20
2017-12-03T16:12:13.160Z,-0.20
2017-12-03T16:14:40.889Z,-0.20
2017-12-03T16:17:08.328Z,-0.20
2017-12-03T16:19:36.349Z,-0.20
2017-12-03T16:22:03.804Z,-0.30
2017-12-03T16:24:31.348Z,-0.30
2017-12-03T16:27:02.125Z,-0.30
2017-12-03T16:29:29.568Z,-0.20
2017-12-03T16:31:57.050Z,-0.20
2017-12-03T16:34:24.708Z,-0.20
2017-12-03T16:36:52.434Z,-0.30
2017-12-03T16:39:23.534Z,-0.40
2017-12-03T16:41:51.097Z,-0.30
2017-12-03T16:44:18.569Z,-0.30
2017-12-03T16:46:46.180Z,-0.30
2017-12-03T16:49:13.652Z,-0.40
2017-12-03T16:51:41.171Z,-0.40
2017-12-03T16:54:12.763Z,-0.40
2017-12-03T16:56:40.502Z,-0.40
2017-12-03T16:59:08.189Z,-0.40
2017-12-03T17:01:35.648Z,-0.40
2017-12-03T17:04:03.116Z,-0.40
2017-12-03T17:06:30.576Z,-0.30
2017-12-03T17:08:58.059Z,-0.30
2017-12-03T17:11:25.488Z,-0.30
2017-12-03T17:13:53.980Z,-0.30
2017-12-03T17:16:21.430Z,-0.40
2017-12-03T17:18:49.111Z,-0.40
2017-12-03T17:21:16.604Z,-0.30
2017-12-03T17:23:44.064Z,-0.30
2017-12-03T17:26:15.577Z,-0.40
2017-12-03T17:28:43.480Z,-0.30
2017-12-03T17:31:11.059Z,-0.30
2017-12-03T17:33:38.532Z,-0.40
2017-12-03T17:36:06.043Z,-0.40
2017-12-03T17:38:33.652Z,-0.50
2017-12-03T17:41:01.425Z,-0.50
2017-12-03T17:43:28.895Z,-0.50
2017-12-03T17:45:57.823Z,-0.50
2017-12-03T17:48:25.320Z,-0.50
2017-12-03T17:50:52.785Z,-0.50
2017-12-03T17:53:20.255Z,-0.60
2017-12-03T17:55:47.719Z,-0.60
2017-12-03T17:58:15.213Z,-0.60
2017-12-03T18:00:42.688Z,-0.60
2017-12-03T18:03:11.096Z,-0.60
2017-12-03T18:05:38.554Z,-0.60
2017-12-03T18:08:06.035Z,-0.50
2017-12-03T18:10:41.083Z,-0.50
2017-12-03T18:13:08.584Z,-0.50
2017-12-03T18:15:36.211Z,-0.50
2017-12-03T18:18:03.877Z,-0.50
2017-12-03T18:20:31.353Z,-0.50
2017-12-03T18:22:58.892Z,-0.50
2017-12-03T18:25:26.417Z,-0.50
2017-12-03T18:27:53.858Z,-0.50
2017-12-03T18:30:21.320Z,-0.50
2017-12-03T18:32:49.332Z,-0.50
2017-12-03T18:35:16.816Z,-0.40
2017-12-03T18:37:44.733Z,-0.40
2017-12-03T18:40:12.187Z,-0.50
2017-12-03T18:42:39.711Z,-0.50
2017-12-03T18:45:07.172Z,-0.40
2017-12-03T18:47:34.630Z,-0.30
2017-12-03T18:50:02.090Z,-0.40
2017-12-03T18:52:29.544Z,-0.40
2017-12-03T18:54:57.039Z,-0.40
2017-12-03T18:57:24.492Z,-0.40
2017-12-03T18:59:53.341Z,-0.40
2017-12-03T19:02:20.812Z,-0.40
2017-12-03T19:04:48.285Z,-0.30
2017-12-03T19:07:15.940Z,-0.30
2017-12-03T19:09:43.393Z,-0.30
2017-12-03T19:12:14.783Z,-0.30
2017-12-03T19:14:42.215Z,-0.30
2017-12-03T19:17:10.452Z,-0.30
2017-12-03T19:19:37.912Z,-0.40
2017-12-03T19:22:08.020Z,-0.30
2017-12-03T19:24:35.637Z,-0.30
2017-12-03T19:27:03.093Z,-0.30
2017-12-03T19:29:30.568Z,-0.40
2017-12-03T19:31:58.075Z,-0.40
2017-12-03T19:34:26.191Z,-0.40
2017-12-03T19:36:53.724Z,-0.40
2017-12-03T19:39:21.169Z,-0.40
2017-12-03T19:41:48.661Z,-0.50
2017-12-03T19:44:16.120Z,-0.40
2017-12-03T19:46:43.621Z,-0.40
2017-12-03T19:49:11.085Z,-0.40
2017-12-03T19:51:38.535Z,-0.50
2017-12-03T19:54:05.980Z,-0.50
2017-12-03T19:56:33.463Z,-0.60
2017-12-03T19:59:01.238Z,-0.50
2017-12-03T20:01:29.298Z,-0.40
2017-12-03T20:03:57.517Z,-0.50
2017-12-03T20:06:24.988Z,-0.60
2017-12-03T20:08:52.483Z,-0.50
2017-12-03T20:11:19.958Z,-0.50
2017-12-03T20:13:49.116Z,-0.60
2017-12-03T20:16:16.804Z,-0.60
2017-12-03T20:18:44.421Z,-0.50
2017-12-03T20:21:12.847Z,-0.40
2017-12-03T20:23:40.305Z,-0.40
2017-12-03T20:26:07.769Z,-0.30
2017-12-03T20:28:36.040Z,-0.30
2017-12-03T20:31:03.494Z,-0.30
2017-12-03T20:33:31.018Z,-0.30
2017-12-03T20:35:58.509Z,-0.40
2017-12-03T20:38:26.922Z,-0.40
2017-12-03T20:40:55.215Z,-0.30
2017-12-03T20:43:25.945Z,-0.30
2017-12-03T20:45:53.364Z,-0.30
2017-12-03T20:48:22.025Z,-0.30
2017-12-03T20:50:49.485Z,-0.30
2017-12-03T20:53:16.960Z,-0.30
2017-12-03T20:55:44.696Z,-0.30
2017-12-03T20:58:15.231Z,-0.30
2017-12-03T21:00:42.775Z,-0.30
2017-12-03T21:03:10.316Z,-0.30
2017-12-03T21:05:37.748Z,-0.30
2017-12-03T21:08:05.953Z,-0.30
2017-12-03T21:10:33.360Z,-0.30
2017-12-03T21:13:00.834Z,-0.30
2017-12-03T21:15:30.586Z,-0.40
2017-12-03T21:17:58.044Z,-0.40
2017-12-03T21:20:25.729Z,-0.40
2017-12-03T21:22:53.180Z,-0.50
2017-12-03T21:25:20.645Z,-0.40
2017-12-03T21:27:48.212Z,-0.40
2017-12-03T21:30:15.871Z,-0.50
2017-12-03T21:32:44.260Z,-0.50
2017-12-03T21:35:11.743Z,-0.40
2017-12-03T21:37:39.317Z,-0.40
2017-12-03T21:40:06.805Z,-0.30
2017-12-03T21:42:34.289Z,-0.30
2017-12-03T21:45:06.467Z,-0.30
2017-12-03T21:47:34.008Z,-0.30
2017-12-03T21:50:01.477Z,-0.30
2017-12-03T21:52:29.733Z,-0.30
2017-12-03T21:54:59.643Z,-0.30
2017-12-03T21:57:27.845Z,-0.30
2017-12-03T21:59:56.387Z,-0.30
2017-12-03T22:02:23.995Z,-0.30
2017-12-03T22:04:52.361Z,-0.20
2017-12-03T22:07:20.581Z,-0.10
2017-12-03T22:09:48.378Z,-0.10
2017-12-03T22:12:15.825Z,-0.10
2017-12-03T22:14:43.280Z,-0.10
2017-12-03T22:17:10.766Z,0.00
2017-12-03T22:19:38.216Z,0.00
2017-12-03T22:22:05.691Z,-0.10
2017-12-03T22:24:33.152Z,-0.10
2017-12-03T22:27:00.645Z,-0.20
2017-12-03T22:29:28.264Z,-0.20
2017-12-03T22:31:56.492Z,-0.20
2017-12-03T22:34:23.974Z,-0.10
2017-12-03T22:36:51.523Z,-0.20
2017-12-03T22:39:18.980Z,-0.20
2017-12-03T22:41:46.510Z,-0.10
2017-12-03T22:44:14.007Z,-0.10
2017-12-03T22:46:41.496Z,-0.30
2017-12-03T22:49:09.900Z,-0.40
2017-12-03T22:51:37.596Z,-0.40
2017-12-03T22:54:05.068Z,-0.50
2017-12-03T22:56:32.496Z,-0.50
2017-12-03T22:59:00.581Z,-0.50
2017-12-03T23:01:33.028Z,-0.40
2017-12-03T23:04:00.488Z,-0.40
2017-12-03T23:06:27.973Z,-0.40
2017-12-03T23:08:55.412Z,-0.40
2017-12-03T23:11:22.912Z,-0.30
2017-12-03T23:13:51.156Z,-0.20
2017-12-03T23:16:23.556Z,-0.20
2017-12-03T23:18:51.804Z,-0.20
2017-12-03T23:21:19.261Z,-0.20
2017-12-03T23:23:46.908Z,-0.20
2017-12-03T23:26:14.406Z,-0.10
2017-12-03T23:28:41.857Z,-0.20
2017-12-03T23:31:12.896Z,-0.20
2017-12-03T23:33:40.349Z,-0.20
2017-12-03T23:36:08.420Z,-0.30
2017-12-03T23:38:35.879Z,-0.20
2017-12-03T23:41:03.330Z,-0.20
2017-12-03T23:43:30.800Z,-0.20
2017-12-03T23:45:58.247Z,-0.20
2017-12-03T23:48:25.729Z,-0.30
2017-12-03T23:50:53.485Z,-0.30
2017-12-03T23:53:21.134Z,-0.20
2017-12-03T23:55:49.369Z,-0.10
2017-12-03T23:58:17.004Z,-0.10
